Middleton, United Kingdom
Current Conditions -  °F | °C
As of 1:50 PM on Thursday 29 Jan 2015 (Local Time) from EGCC Reporting Station
Rain Showers Rain Showers  
Wind Chill: 25°   Ceiling: 2000
Heat Index: 34°   Visibility: 6mi
Dew Point: 32°   Wind: 13mph
Humidity: 93%   Direction: 260°W
Pressure: 28.85"   Gusts: 24mph
Location:  53.55°N, 2.2°W
Report Text: EGCC 291350Z 26011G21KT 9999 VCSH FEW009 BKN020 BKN026 01/00 Q0977
Loading
Personal Weather Stations






























Interactive Weather Map New forecast layout! Learn more

10-Day Weather Forecast

Advertisements
Track Severe Weather on mobile